Thunder radar more information blitzortung!


Radar de pluja more information rain snow radar


Visita la nostra xarxa de llocs de meteo:

Template documentation
and downloads

And another site



No particular awareness of the weather is required.    There are no Weather-warnings

Pagina Historial Weather Underground text

Diari Resum Novembre 26, 2017 Unitats:  Mètric    Imperial   Tant
« Previous Dia
SegĂźent Dia »
Diari Setmana Mensual Anual Personalitzada
  Maxima: Minima: Media:
Temperatura: -17.8 °C -15.7 °C -13.1 °C
Punt de rosada: -17.8 °C -21.1 °C -19 °C
Humitat: Humidity % 38 % 47 %
Wind Speed: 0 km/h 0 km/h 6 km/h
RĂ fegues de vent: 0 km/h - -
Vent:- - South
Pression baro: 0 hPa 34635.4 hPa -
Precipitacions: 0 mm    
Historical Graphs
 
 
Dades de taula per Novembre 26, 2017
Temps Temperatura Punt de rosada Pression baro Vent Wind Speed RĂ fegues de vent Humitat Rainfall Rate (Hourly)
-17.8 °C -17.8 °C 0 hPa Calm     Humidity % 0 mm
00:01 -13.1 °C -18.6 °C 34669.3 hPa WSW 6.3 km/h 6.3 km/h 50 % 0 mm
00:05 -14.9 °C -19.9 °C 34740.4 hPa Calm   5.1 km/h 52 % 0 mm
00:06 -13.2 °C -18.7 °C 34669.3 hPa SW 3.1 km/h   50 % 0 mm
00:11 -13.3 °C -18.7 °C 34669.3 hPa Calm     50 % 0 mm
00:15 -15.1 °C -20.1 °C 34740.4 hPa East 2.6 km/h 5.1 km/h 52 % 0 mm
00:16 -13.3 °C -18.8 °C 34635.4 hPa Calm     50 % 0 mm
00:25 -15.1 °C -20.1 °C 34740.4 hPa Calm   5.1 km/h 52 % 0 mm
00:35 -15.2 °C -20.1 °C 34740.4 hPa SW 2.6 km/h 5.1 km/h 53 % 0 mm
00:45 -15.2 °C -20.1 °C 34740.4 hPa WSW 2.6 km/h 5.1 km/h 53 % 0 mm
00:55 -15.2 °C -20.1 °C 34740.4 hPa West 2.6 km/h 5.1 km/h 53 % 0 mm
01:05 -15.3 °C -20.2 °C 34740.4 hPa West 2.6 km/h   53 % 0 mm
01:15 -15.4 °C -20.1 °C 34740.4 hPa Calm   2.6 km/h 54 % 0 mm
01:25 -15.4 °C -20.1 °C 34740.4 hPa NNE 5.1 km/h 7.7 km/h 54 % 0 mm
01:35 -15.3 °C -20.1 °C 34740.4 hPa NE 5.1 km/h 10.3 km/h 54 % 0 mm
01:45 -15.3 °C -20.1 °C 34740.4 hPa NNE 5.1 km/h 5.1 km/h 54 % 0 mm
01:55 -15.3 °C -20 °C 34740.4 hPa NNW 5.1 km/h 10.3 km/h 54 % 0 mm
02:05 -15.2 °C -19.9 °C 34774.2 hPa NNE 12.9 km/h 12.9 km/h 54 % 0 mm
02:15 -15.2 °C -19.8 °C 34774.2 hPa NE 5.1 km/h 12.9 km/h 55 % 0 mm
02:25 -15.2 °C -19.8 °C 34774.2 hPa North 5.1 km/h 7.7 km/h 55 % 0 mm
02:35 -15.2 °C -19.8 °C 34774.2 hPa NNW 5.1 km/h 7.7 km/h 55 % 0 mm
02:45 -15.1 °C -19.7 °C 34774.2 hPa NNE 2.6 km/h 7.7 km/h 55 % 0 mm
02:55 -15 °C -19.6 °C 34808.1 hPa NNE 2.6 km/h 5.1 km/h 55 % 0 mm
03:05 -14.9 °C -19.5 °C 34808.1 hPa North 5.1 km/h 5.1 km/h 55 % 0 mm
03:15 -14.8 °C -19.4 °C 34808.1 hPa North 2.6 km/h 7.7 km/h 55 % 0 mm
03:25 -14.7 °C -19.3 °C 34808.1 hPa NNE 2.6 km/h 10.3 km/h 55 % 0 mm
03:35 -14.5 °C -19.1 °C 34808.1 hPa Calm   7.7 km/h 55 % 0 mm
03:45 -14.3 °C -19 °C 34808.1 hPa Calm   5.1 km/h 55 % 0 mm
03:55 -13.9 °C -18.7 °C 34808.1 hPa NNW 2.6 km/h 5.1 km/h 55 % 0 mm
04:05 -13.7 °C -18.5 °C 34808.1 hPa North 2.6 km/h 5.1 km/h 54 % 0 mm
04:15 -13.2 °C -18.1 °C 34808.1 hPa NNW 2.6 km/h 5.1 km/h 54 % 0 mm
04:25 -13.2 °C -18.2 °C 34808.1 hPa WSW 2.6 km/h 7.7 km/h 53 % 0 mm
04:35 -13.1 °C -18.1 °C 34808.1 hPa SW 2.6 km/h 5.1 km/h 53 % 0 mm
04:45 -13.1 °C -18.2 °C 34808.1 hPa SSW 5.1 km/h 7.7 km/h 52 % 0 mm
04:55 -13 °C -18.2 °C 34841.9 hPa East 5.1 km/h 7.7 km/h 52 % 0 mm
05:05 -12.8 °C -17.9 °C 34841.9 hPa ENE 2.6 km/h 10.3 km/h 52 % 0 mm
05:15 -12.7 °C -17.9 °C 34841.9 hPa NE 2.6 km/h 7.7 km/h 52 % 0 mm
05:25 -12.6 °C -17.8 °C 34875.8 hPa NE 7.7 km/h 7.7 km/h 52 % 0 mm
05:35 -12.7 °C -18 °C 34841.9 hPa NE 5.1 km/h 7.7 km/h 51 % 0 mm
05:45 -12.3 °C -17.7 °C 34841.9 hPa ENE 2.6 km/h 5.1 km/h 51 % 0 mm
11:45 -12.4 °C -17.7 °C 34875.8 hPa East 6.3 km/h 6.3 km/h 51 % 0 mm
11:50 -12.1 °C -17.3 °C 34875.8 hPa ESE 6.3 km/h 6.3 km/h 52 % 0 mm
11:55 -12.1 °C -17.5 °C 34875.8 hPa SE 6.3 km/h 6.3 km/h 51 % 0 mm
12:00 -12 °C -17.4 °C 34875.8 hPa East 6 km/h 6 km/h 51 % 0 mm
12:05 -11.7 °C -17.1 °C 34875.8 hPa NW 5.6 km/h 5.6 km/h 51 % 0 mm
12:10 -11.8 °C -17.2 °C 34875.8 hPa NNE 3.1 km/h 3.1 km/h 51 % 0 mm
12:15 -11.9 °C -17.3 °C 34875.8 hPa East 9.3 km/h 9.3 km/h 51 % 0 mm
12:20 -11.8 °C -17.2 °C 34875.8 hPa NNE 6 km/h 6 km/h 51 % 0 mm
12:25 -11.7 °C -17.1 °C 34875.8 hPa East 6 km/h 6 km/h 51 % 0 mm
12:30 -11.4 °C -16.9 °C 34841.9 hPa ENE 5.6 km/h 5.6 km/h 51 % 0 mm
12:40 -11.4 °C -16.9 °C 34841.9 hPa East 9 km/h 9 km/h 51 % 0 mm
12:45 -11.4 °C -17.1 °C 34841.9 hPa ESE 9 km/h 9 km/h 50 % 0 mm
12:50 -11.3 °C -16.7 °C 34841.9 hPa ESE 11.6 km/h 11.6 km/h 51 % 0 mm
12:55 -11.3 °C -16.9 °C 34841.9 hPa ESE 9 km/h 9 km/h 50 % 0 mm
13:00 -11.3 °C -16.9 °C 34808.1 hPa ENE 9 km/h 9 km/h 50 % 0 mm
13:05 -11.1 °C -16.7 °C 34808.1 hPa East 9 km/h 9 km/h 50 % 0 mm
13:10 -10.9 °C -16.4 °C 34808.1 hPa ESE 6.8 km/h 6.8 km/h 51 % 0 mm
13:15 -10.7 °C -16.3 °C 34808.1 hPa South 6.3 km/h 6.3 km/h 50 % 0 mm
13:20 -10.4 °C -15.9 °C 34808.1 hPa WSW 11.9 km/h 11.9 km/h 51 % 0 mm
13:25 -10.3 °C -15.9 °C 34808.1 hPa SSE 6 km/h 6 km/h 51 % 0 mm
13:30 -10.4 °C -15.9 °C 34808.1 hPa ENE 6.8 km/h 6.8 km/h 51 % 0 mm
13:35 -10.4 °C -16.1 °C 34808.1 hPa SW 9 km/h 9 km/h 50 % 0 mm
13:40 -10.4 °C -15.9 °C 34808.1 hPa SSW 11.9 km/h 11.9 km/h 51 % 0 mm
13:45 -10.4 °C -16.1 °C 34774.2 hPa SSE 6 km/h 6 km/h 50 % 0 mm
13:50 -10.4 °C -16.1 °C 34774.2 hPa SW 11.9 km/h 11.9 km/h 50 % 0 mm
13:55 -10.4 °C -16.2 °C 34774.2 hPa South 15 km/h 15 km/h 49 % 0 mm
14:00 -10.3 °C -16.1 °C 34774.2 hPa WSW 15 km/h 15 km/h 49 % 0 mm
14:05 -10.2 °C -16.2 °C 34774.2 hPa SW 20.9 km/h 20.9 km/h 48 % 0 mm
14:10 -10.2 °C -16.6 °C 34774.2 hPa SSW 11.9 km/h 11.9 km/h 46 % 0 mm
14:15 -10.3 °C -16.8 °C 34808.1 hPa WSW 11.9 km/h 11.9 km/h 45 % 0 mm
14:20 -10.1 °C -16.6 °C 34808.1 hPa WNW 20.9 km/h 20.9 km/h 45 % 0 mm
14:21 -10.1 °C -16.4 °C 34808.1 hPa WSW 11.9 km/h 11.9 km/h 46 % 0 mm
14:26 -10 °C -16.6 °C 34808.1 hPa SSW 6 km/h 6 km/h 45 % 0 mm
14:31 -9.9 °C -16.5 °C 34808.1 hPa West 9 km/h 9 km/h 45 % 0 mm
14:36 -9.9 °C -16.6 °C 34808.1 hPa WNW 9 km/h 9 km/h 44 % 0 mm
14:41 -9.9 °C -16.6 °C 34808.1 hPa SSW 11.9 km/h 11.9 km/h 44 % 0 mm
14:46 -9.9 °C -16.8 °C 34808.1 hPa WNW 11.9 km/h 11.9 km/h 43 % 0 mm
14:51 -10.2 °C -16.8 °C 34808.1 hPa ENE 8 km/h 8 km/h 44 % 0 mm
14:56 -10.2 °C -16.7 °C 34808.1 hPa West 9 km/h 9 km/h 45 % 0 mm
15:01 -10.2 °C -16.9 °C 34808.1 hPa WSW 6.3 km/h 6.3 km/h 44 % 0 mm
15:06 -10.3 °C -17 °C 34808.1 hPa NNE 6 km/h 6 km/h 44 % 0 mm
15:11 -10.1 °C -16.6 °C 34808.1 hPa NNW 6 km/h 6 km/h 45 % 0 mm
15:16 -10 °C -16.7 °C 34774.2 hPa WSW 11.9 km/h 11.9 km/h 44 % 0 mm
15:21 -9.8 °C -16.7 °C 34774.2 hPa SW 12.7 km/h 12.7 km/h 43 % 0 mm
15:26 -9.9 °C -17 °C 34774.2 hPa West 15 km/h 15 km/h 42 % 0 mm
15:31 -9.9 °C -17.2 °C 34808.1 hPa West 20.9 km/h 20.9 km/h 41 % 0 mm
15:36 -10.1 °C -17.7 °C 34808.1 hPa WNW 17.9 km/h 17.9 km/h 39 % 0 mm
15:41 -10.2 °C -17.8 °C 34808.1 hPa West 15 km/h 15 km/h 39 % 0 mm
15:46 -10.1 °C -17.7 °C 34808.1 hPa SW 15 km/h 15.6 km/h 39 % 0 mm
15:51 -10.2 °C -17.8 °C 34808.1 hPa West 20.9 km/h 20.9 km/h 39 % 0 mm
15:56 -10.3 °C -18.1 °C 34808.1 hPa West 26.9 km/h 26.9 km/h 38 % 0 mm
16:01 -10.3 °C -18.1 °C 34808.1 hPa SW 14.5 km/h 14.5 km/h 38 % 0 mm
16:06 -10.3 °C -18.2 °C 34808.1 hPa WSW 15 km/h 15 km/h 38 % 0 mm
16:11 -10.3 °C -18.2 °C 34808.1 hPa WNW 11.9 km/h 11.9 km/h 38 % 0 mm
16:16 -10.4 °C -18 °C 34808.1 hPa WNW 11.9 km/h 11.9 km/h 39 % 0 mm
16:21 -10.4 °C -18 °C 34808.1 hPa West 15 km/h 15 km/h 39 % 0 mm
16:26 -10.4 °C -18 °C 34808.1 hPa WSW 6 km/h 6.3 km/h 39 % 0 mm
16:31 -10.6 °C -18.2 °C 34841.9 hPa West 9.8 km/h 9.8 km/h 39 % 0 mm
16:36 -10.6 °C -18.2 °C 34841.9 hPa WSW 9 km/h 9 km/h 39 % 0 mm
16:41 -10.6 °C -18.2 °C 34841.9 hPa WSW 6.3 km/h 6.3 km/h 39 % 0 mm
16:46 -10.7 °C -18.2 °C 34808.1 hPa West 6 km/h 6 km/h 39 % 0 mm
16:51 -10.7 °C -18.3 °C 34808.1 hPa WSW 6 km/h 6 km/h 39 % 0 mm
16:56 -10.8 °C -18.4 °C 34808.1 hPa WSW 11.9 km/h 11.9 km/h 39 % 0 mm
17:01 -10.9 °C -18.5 °C 34808.1 hPa West 15 km/h 15 km/h 39 % 0 mm
17:06 -11 °C -18.6 °C 34808.1 hPa SW 15 km/h 15 km/h 39 % 0 mm
17:11 -11.2 °C -18.7 °C 34808.1 hPa WSW 9 km/h 9 km/h 39 % 0 mm
17:16 -11.3 °C -18.8 °C 34841.9 hPa WSW 9 km/h 9 km/h 39 % 0 mm
17:21 -11.5 °C -19 °C 34841.9 hPa SSW 9.8 km/h 9.8 km/h 39 % 0 mm
17:26 -11.6 °C -19.1 °C 34841.9 hPa WSW 6.3 km/h 6.3 km/h 39 % 0 mm
17:31 -11.7 °C -19.1 °C 34841.9 hPa WSW 3.1 km/h 3.1 km/h 39 % 0 mm
17:36 -11.7 °C -19.2 °C 34841.9 hPa NW 6 km/h 6 km/h 39 % 0 mm
17:41 -11.8 °C -19.2 °C 34841.9 hPa ENE 3.7 km/h 3.7 km/h 39 % 0 mm
17:46 -11.8 °C -19.3 °C 34841.9 hPa WSW 6 km/h 6 km/h 39 % 0 mm
17:51 -11.9 °C -19.3 °C 34841.9 hPa WSW 6.8 km/h 6.8 km/h 39 % 0 mm
17:56 -11.9 °C -19.3 °C 34841.9 hPa WSW 9 km/h 9 km/h 39 % 0 mm
18:01 -11.9 °C -19.3 °C 34841.9 hPa SW 3.1 km/h   39 % 0 mm
18:06 -12 °C -19.4 °C 34841.9 hPa East 3.1 km/h 3.7 km/h 39 % 0 mm
18:11 -12.1 °C -19.5 °C 34841.9 hPa ENE 4.2 km/h   39 % 0 mm
18:16 -12.2 °C -19.6 °C 34875.8 hPa ENE 5.1 km/h 5.1 km/h 39 % 0 mm
18:21 -12.2 °C -19.6 °C 34875.8 hPa NNE 6 km/h 6 km/h 39 % 0 mm
18:26 -12.3 °C -19.7 °C 34875.8 hPa NNE 3.1 km/h   39 % 0 mm
18:31 -12.4 °C -19.8 °C 34841.9 hPa Calm     39 % 0 mm
18:36 -12.6 °C -19.9 °C 34841.9 hPa NE 3.1 km/h 3.1 km/h 39 % 0 mm
18:41 -12.6 °C -19.8 °C 34841.9 hPa WNW 6 km/h 6 km/h 40 % 0 mm
18:45 -15.6 °C -20.6 °C 34875.8 hPa SW 2.6 km/h 5.1 km/h 52 % 0 mm
18:46 -12.6 °C -19.8 °C 34841.9 hPa West 3.1 km/h 3.1 km/h 40 % 0 mm
18:51 -12.6 °C -19.8 °C 34841.9 hPa SW 6 km/h 6 km/h 40 % 0 mm
18:55 -15.4 °C -20.4 °C 34841.9 hPa North 2.6 km/h 5.1 km/h 52 % 0 mm
18:56 -12.6 °C -19.8 °C 34841.9 hPa West 6 km/h 6 km/h 40 % 0 mm
19:01 -12.6 °C -19.8 °C 34841.9 hPa West 3.1 km/h   40 % 0 mm
19:05 -15.4 °C -20.4 °C 34841.9 hPa NNW 2.6 km/h 2.6 km/h 52 % 0 mm
19:06 -12.6 °C -19.8 °C 34841.9 hPa Calm     40 % 0 mm
19:11 -12.7 °C -19.8 °C 34841.9 hPa West 3.7 km/h 3.7 km/h 40 % 0 mm
19:15 -15.4 °C -20.2 °C 34841.9 hPa Calm   2.6 km/h 53 % 0 mm
19:16 -12.7 °C -19.8 °C 34841.9 hPa West 5.1 km/h   40 % 0 mm
19:21 -12.7 °C -19.8 °C 34841.9 hPa WSW 4.2 km/h 4.2 km/h 40 % 0 mm
19:25 -15.6 °C -20.6 °C 34841.9 hPa West 5.1 km/h 7.7 km/h 52 % 0 mm
19:26 -12.7 °C -19.8 °C 34841.9 hPa WNW 6 km/h 6 km/h 40 % 0 mm
19:31 -12.6 °C -19.8 °C 34841.9 hPa WSW 3.1 km/h 3.1 km/h 40 % 0 mm
19:35 -15.7 °C -20.5 °C 34841.9 hPa Calm   5.1 km/h 53 % 0 mm
19:36 -12.6 °C -19.6 °C 34841.9 hPa WNW 3.1 km/h 3.1 km/h 41 % 0 mm
19:41 -12.6 °C -19.6 °C 34841.9 hPa ENE 6.3 km/h 6.3 km/h 41 % 0 mm
19:45 -15.5 °C -20.3 °C 34841.9 hPa Calm   5.1 km/h 53 % 0 mm
19:46 -13 °C -19.9 °C 34841.9 hPa ENE 9 km/h 9 km/h 41 % 0 mm
19:51 -13.1 °C -20 °C 34841.9 hPa ESE 3.1 km/h   41 % 0 mm
19:55 -15.4 °C -20.3 °C 34841.9 hPa Calm     53 % 0 mm
19:56 -13.2 °C -20.1 °C 34841.9 hPa Calm     41 % 0 mm
20:01 -13.2 °C -20.2 °C 34841.9 hPa WNW 6 km/h 6 km/h 41 % 0 mm
20:05 -15.4 °C -20.2 °C 34841.9 hPa Calm   2.6 km/h 53 % 0 mm
20:06 -13.2 °C -20.2 °C 34841.9 hPa WNW 3.7 km/h 3.7 km/h 41 % 0 mm
20:11 -13.3 °C -20.2 °C 34841.9 hPa WNW 6.8 km/h 6.8 km/h 41 % 0 mm
20:15 -15.3 °C -20.1 °C 34841.9 hPa NNE 5.1 km/h 5.1 km/h 54 % 0 mm
20:16 -13.3 °C -20.3 °C 34808.1 hPa NW 5.1 km/h 5.1 km/h 41 % 0 mm
20:21 -13.3 °C -20.3 °C 34808.1 hPa NNE 6 km/h 6 km/h 41 % 0 mm
20:25 -15.4 °C -20.2 °C 34841.9 hPa Calm   2.6 km/h 54 % 0 mm
20:26 -13.3 °C -20.3 °C 34808.1 hPa WNW 3.1 km/h 3.1 km/h 41 % 0 mm
20:31 -13.3 °C -20.2 °C 34808.1 hPa WNW 3.1 km/h 3.7 km/h 41 % 0 mm
20:35 -15.4 °C -20.1 °C 34875.8 hPa Calm   2.6 km/h 54 % 0 mm
20:36 -13.2 °C -19.9 °C 34808.1 hPa NW 3.7 km/h 3.7 km/h 42 % 0 mm
20:41 -13.1 °C -19.8 °C 34808.1 hPa North 3.1 km/h   42 % 0 mm
20:45 -15.3 °C -20.1 °C 34875.8 hPa WNW 2.6 km/h 2.6 km/h 54 % 0 mm
20:46 -13.2 °C -19.9 °C 34808.1 hPa WNW 3.1 km/h 3.1 km/h 42 % 0 mm
20:51 -13.4 °C -20.1 °C 34808.1 hPa NNE 6 km/h 6 km/h 42 % 0 mm
20:55 -15.3 °C -20.1 °C 34841.9 hPa NNW 2.6 km/h 5.1 km/h 54 % 0 mm
20:56 -13.4 °C -20.2 °C 34808.1 hPa ENE 6 km/h 6 km/h 42 % 0 mm
21:01 -13.5 °C -20.2 °C 34841.9 hPa NNE 9 km/h 9 km/h 42 % 0 mm
21:05 -15.4 °C -20.2 °C 34841.9 hPa Calm   2.6 km/h 54 % 0 mm
21:13 -13.8 °C -20.3 °C 34841.9 hPa East 6 km/h 6 km/h 43 % 0 mm
21:15 -15.4 °C -20.2 °C 34841.9 hPa North 2.6 km/h 5.1 km/h 54 % 0 mm
21:18 -14.1 °C -20.6 °C 34841.9 hPa NE 6 km/h 6.3 km/h 43 % 0 mm
21:23 -14.2 °C -20.7 °C 34841.9 hPa NE 6 km/h 6 km/h 43 % 0 mm
21:25 -15.2 °C -19.9 °C 34841.9 hPa NE 5.1 km/h 7.7 km/h 54 % 0 mm
21:28 -14.3 °C -20.6 °C 34841.9 hPa NNE 3.1 km/h 3.1 km/h 44 % 0 mm
21:33 -14.3 °C -20.7 °C 34841.9 hPa WNW 6 km/h   44 % 0 mm
21:35 -15.2 °C -19.9 °C 34841.9 hPa NE 5.1 km/h 7.7 km/h 54 % 0 mm
21:38 -14.3 °C -20.7 °C 34841.9 hPa NNE 6 km/h 6 km/h 44 % 0 mm
21:43 -14.3 °C -20.7 °C 34841.9 hPa NNE 2.3 km/h   44 % 0 mm
21:45 -15.3 °C -20 °C 34841.9 hPa NE 7.7 km/h 10.3 km/h 54 % 0 mm
21:48 -14.3 °C -20.5 °C 34841.9 hPa North 6 km/h 6 km/h 45 % 0 mm
21:53 -14.3 °C -20.7 °C 34841.9 hPa NW 6 km/h 6 km/h 44 % 0 mm
21:55 -15.2 °C -19.8 °C 34841.9 hPa NE 5.1 km/h 10.3 km/h 55 % 0 mm
21:58 -14.3 °C -20.5 °C 34841.9 hPa WSW 3.1 km/h   45 % 0 mm
22:03 -14.4 °C -20.6 °C 34841.9 hPa Calm     45 % 0 mm
22:05 -15.3 °C -19.9 °C 34841.9 hPa NNE 2.6 km/h 10.3 km/h 55 % 0 mm
22:08 -14.6 °C -20.5 °C 34841.9 hPa SSE 6 km/h 6 km/h 46 % 0 mm
22:13 -14.6 °C -20.6 °C 34841.9 hPa ENE 3.1 km/h   46 % 0 mm
22:15 -15.3 °C -19.9 °C 34841.9 hPa NNE 5.1 km/h 5.1 km/h 55 % 0 mm
22:18 -14.9 °C -20.8 °C 34875.8 hPa NNE 6 km/h 6 km/h 46 % 0 mm
22:23 -14.9 °C -20.9 °C 34875.8 hPa SW 6.8 km/h 6.8 km/h 46 % 0 mm
22:25 -15.3 °C -19.9 °C 34841.9 hPa Calm   5.1 km/h 55 % 0 mm
22:28 -15.1 °C -21.1 °C 34875.8 hPa WSW 6 km/h 6 km/h 46 % 0 mm
22:33 -15.1 °C -21.1 °C 34875.8 hPa West 6.3 km/h 6.3 km/h 46 % 0 mm
22:35 -15.4 °C -19.9 °C 34841.9 hPa NNE 2.6 km/h 5.1 km/h 55 % 0 mm
22:38 -15.1 °C -20.9 °C 34875.8 hPa SSW 3.1 km/h 3.1 km/h 47 % 0 mm
22:43 -15 °C -20.8 °C 34875.8 hPa WNW 6 km/h 6 km/h 47 % 0 mm
22:45 -15.3 °C -19.9 °C 34841.9 hPa North 5.1 km/h 7.7 km/h 55 % 0 mm
22:48 -15 °C -20.8 °C 34875.8 hPa Calm     47 % 0 mm
22:53 -14.9 °C -20.7 °C 34875.8 hPa WSW 6 km/h 6 km/h 47 % 0 mm
22:55 -15.3 °C -19.9 °C 34841.9 hPa NNE 5.1 km/h 10.3 km/h 55 % 0 mm
22:58 -14.9 °C -20.6 °C 34875.8 hPa NNE 3.1 km/h   48 % 0 mm
23:03 -14.9 °C -20.5 °C 34875.8 hPa NNE 6 km/h 6 km/h 48 % 0 mm
23:05 -15.4 °C -20.1 °C 34841.9 hPa NE 7.7 km/h 7.7 km/h 55 % 0 mm
23:08 -14.7 °C -20.4 °C 34875.8 hPa SW 6.3 km/h 6.3 km/h 48 % 0 mm
23:13 -15.1 °C -20.7 °C 34875.8 hPa ENE 4.2 km/h   48 % 0 mm
23:15 -15.7 °C -20.2 °C 34841.9 hPa NNE 2.6 km/h 7.7 km/h 55 % 0 mm
23:18 -15.1 °C -20.6 °C 34875.8 hPa ENE 3.1 km/h   49 % 0 mm
23:20 -15.1 °C -20.6 °C 34875.8 hPa Calm     49 % 0 mm
23:25 -15.1 °C -20.6 °C 34875.8 hPa Calm     49 % 0 mm
23:30 -15.1 °C -20.4 °C 34875.8 hPa Calm     50 % 0 mm
23:35 -15.1 °C -20.4 °C 34875.8 hPa Calm     50 % 0 mm
23:40 -15 °C -20.3 °C 34875.8 hPa WNW 3.1 km/h 3.1 km/h 50 % 0 mm
23:45 -15.1 °C -20.4 °C 34875.8 hPa East 3.7 km/h 3.7 km/h 50 % 0 mm
23:50 -15.1 °C -20.4 °C 34875.8 hPa Calm     50 % 0 mm
23:55 -15.3 °C -20.6 °C 34875.8 hPa Calm     50 % 0 mm
Meteo Sesrovires
Elogis d' Weather Underground - 4 mb

Guio original per  Jim McMurry - jmcmurry@mwt.net Adaptat per a la plantilla per  Wim van der Kuil - Leuven-Template.eu

Trobareu la nostra informacio del temps tambe a:

Weather Underground

AWEKAS